sensor_id;sensor_type;location;lat;lon;timestamp;temperature;humidity
1307;DHT22;646;48.696;9.114;2023-03-01T00:00:54;-1.70;99.90
1307;DHT22;646;48.696;9.114;2023-03-01T00:03:25;-1.50;99.90
1307;DHT22;646;48.696;9.114;2023-03-01T00:05:51;-1.70;99.90
1307;DHT22;646;48.696;9.114;2023-03-01T00:08:16;-1.80;99.90
1307;DHT22;646;48.696;9.114;2023-03-01T00:10:42;-1.90;99.90
1307;DHT22;646;48.696;9.114;2023-03-01T00:13:07;-1.90;99.90
1307;DHT22;646;48.696;9.114;2023-03-01T00:15:33;-1.90;99.90
1307;DHT22;646;48.696;9.114;2023-03-01T00:18:00;-1.80;99.90
1307;DHT22;646;48.696;9.114;2023-03-01T00:20:25;-2.10;99.90
1307;DHT22;646;48.696;9.114;2023-03-01T00:22:51;-1.90;99.90
1307;DHT22;646;48.696;9.114;2023-03-01T00:25:16;-1.70;99.90
1307;DHT22;646;48.696;9.114;2023-03-01T00:27:42;-1.90;99.90
1307;DHT22;646;48.696;9.114;2023-03-01T00:30:08;-1.90;99.90
1307;DHT22;646;48.696;9.114;2023-03-01T00:32:33;-2.00;99.90
1307;DHT22;646;48.696;9.114;2023-03-01T00:34:59;-2.10;99.90
1307;DHT22;646;48.696;9.114;2023-03-01T00:37:24;-2.20;99.90
1307;DHT22;646;48.696;9.114;2023-03-01T00:39:50;-1.90;99.90
1307;DHT22;646;48.696;9.114;2023-03-01T00:42:16;-2.10;99.90
1307;DHT22;646;48.696;9.114;2023-03-01T00:44:42;-2.10;99.90
1307;DHT22;646;48.696;9.114;2023-03-01T00:47:08;-2.30;99.90
1307;DHT22;646;48.696;9.114;2023-03-01T00:49:34;-1.90;99.90
1307;DHT22;646;48.696;9.114;2023-03-01T00:52:00;-2.40;99.90
1307;DHT22;646;48.696;9.114;2023-03-01T00:54:25;-2.30;99.90
1307;DHT22;646;48.696;9.114;2023-03-01T00:56:51;-2.00;99.90
1307;DHT22;646;48.696;9.114;2023-03-01T00:59:16;-1.90;99.90
1307;DHT22;646;48.696;9.114;2023-03-01T01:01:42;-2.00;99.90
1307;DHT22;646;48.696;9.114;2023-03-01T01:04:10;-1.90;99.90
1307;DHT22;646;48.696;9.114;2023-03-01T01:06:38;-1.90;99.90
1307;DHT22;646;48.696;9.114;2023-03-01T01:09:06;-2.10;99.90
1307;DHT22;646;48.696;9.114;2023-03-01T01:11:33;-1.90;99.90
1307;DHT22;646;48.696;9.114;2023-03-01T01:13:59;-2.00;99.90
1307;DHT22;646;48.696;9.114;2023-03-01T01:16:26;-2.00;99.90
1307;DHT22;646;48.696;9.114;2023-03-01T01:18:52;-2.00;99.90
1307;DHT22;646;48.696;9.114;2023-03-01T01:21:20;-1.70;99.90
1307;DHT22;646;48.696;9.114;2023-03-01T01:23:47;-1.80;99.90
1307;DHT22;646;48.696;9.114;2023-03-01T01:26:19;-1.80;99.90
1307;DHT22;646;48.696;9.114;2023-03-01T01:28:45;-1.90;99.90
1307;DHT22;646;48.696;9.114;2023-03-01T01:31:11;-1.50;99.90
1307;DHT22;646;48.696;9.114;2023-03-01T01:33:37;-1.90;99.90
1307;DHT22;646;48.696;9.114;2023-03-01T01:36:04;-1.80;99.90
1307;DHT22;646;48.696;9.114;2023-03-01T01:38:29;-1.60;99.90
1307;DHT22;646;48.696;9.114;2023-03-01T01:40:55;-1.70;99.90
1307;DHT22;646;48.696;9.114;2023-03-01T01:43:29;-2.00;99.90
1307;DHT22;646;48.696;9.114;2023-03-01T01:45:59;-1.80;99.90
1307;DHT22;646;48.696;9.114;2023-03-01T01:48:32;-1.70;99.90
1307;DHT22;646;48.696;9.114;2023-03-01T01:51:09;-1.70;99.90
1307;DHT22;646;48.696;9.114;2023-03-01T01:53:37;-1.80;99.90
1307;DHT22;646;48.696;9.114;2023-03-01T01:56:03;-1.60;99.90
1307;DHT22;646;48.696;9.114;2023-03-01T01:58:33;-1.50;99.90
1307;DHT22;646;48.696;9.114;2023-03-01T02:00:59;-1.50;99.90
1307;DHT22;646;48.696;9.114;2023-03-01T02:03:30;-1.50;99.90
1307;DHT22;646;48.696;9.114;2023-03-01T02:06:07;-1.30;99.90
1307;DHT22;646;48.696;9.114;2023-03-01T02:08:38;-1.20;99.90
1307;DHT22;646;48.696;9.114;2023-03-01T02:11:06;-1.40;99.90
1307;DHT22;646;48.696;9.114;2023-03-01T02:13:33;-1.20;99.90
1307;DHT22;646;48.696;9.114;2023-03-01T02:16:03;-1.10;99.90
1307;DHT22;646;48.696;9.114;2023-03-01T02:18:29;-1.10;99.90
1307;DHT22;646;48.696;9.114;2023-03-01T02:23:47;-0.70;99.90
1307;DHT22;646;48.696;9.114;2023-03-01T02:29:00;-0.50;99.90
1307;DHT22;646;48.696;9.114;2023-03-01T02:31:26;-0.40;99.90
1307;DHT22;646;48.696;9.114;2023-03-01T02:34:16;-0.30;99.90
1307;DHT22;646;48.696;9.114;2023-03-01T02:36:47;-0.20;99.90
1307;DHT22;646;48.696;9.114;2023-03-01T02:39:17;0.00;99.90
1307;DHT22;646;48.696;9.114;2023-03-01T02:41:46;-0.30;99.90
1307;DHT22;646;48.696;9.114;2023-03-01T02:44:13;0.10;99.90
1307;DHT22;646;48.696;9.114;2023-03-01T02:46:47;-0.20;99.90
1307;DHT22;646;48.696;9.114;2023-03-01T02:49:20;0.00;99.90
1307;DHT22;646;48.696;9.114;2023-03-01T02:52:12;0.00;99.90
1307;DHT22;646;48.696;9.114;2023-03-01T02:57:27;0.00;99.90
1307;DHT22;646;48.696;9.114;2023-03-01T02:59:54;-0.10;99.90
1307;DHT22;646;48.696;9.114;2023-03-01T03:02:23;0.30;99.90
1307;DHT22;646;48.696;9.114;2023-03-01T03:05:07;0.30;99.90
1307;DHT22;646;48.696;9.114;2023-03-01T03:07:35;0.30;99.90
1307;DHT22;646;48.696;9.114;2023-03-01T03:10:02;0.30;99.90
1307;DHT22;646;48.696;9.114;2023-03-01T03:12:28;0.30;99.90
1307;DHT22;646;48.696;9.114;2023-03-01T03:14:53;0.50;99.90
1307;DHT22;646;48.696;9.114;2023-03-01T03:17:19;0.20;99.90
1307;DHT22;646;48.696;9.114;2023-03-01T03:19:44;0.40;99.90
1307;DHT22;646;48.696;9.114;2023-03-01T03:22:11;0.20;99.90
1307;DHT22;646;48.696;9.114;2023-03-01T03:24:37;0.40;99.90
1307;DHT22;646;48.696;9.114;2023-03-01T03:27:04;0.60;99.90
1307;DHT22;646;48.696;9.114;2023-03-01T03:29:29;0.40;99.90
1307;DHT22;646;48.696;9.114;2023-03-01T03:31:55;0.10;99.90
1307;DHT22;646;48.696;9.114;2023-03-01T03:34:20;0.60;99.90
1307;DHT22;646;48.696;9.114;2023-03-01T03:36:46;0.50;99.90
1307;DHT22;646;48.696;9.114;2023-03-01T03:39:11;0.50;99.90
1307;DHT22;646;48.696;9.114;2023-03-01T03:41:37;0.50;99.90
1307;DHT22;646;48.696;9.114;2023-03-01T03:44:02;0.60;99.90
1307;DHT22;646;48.696;9.114;2023-03-01T03:46:28;0.50;99.90
1307;DHT22;646;48.696;9.114;2023-03-01T03:48:53;0.80;99.90
1307;DHT22;646;48.696;9.114;2023-03-01T03:51:19;0.70;99.90
1307;DHT22;646;48.696;9.114;2023-03-01T03:53:45;0.70;99.90
1307;DHT22;646;48.696;9.114;2023-03-01T03:56:11;0.50;99.90
1307;DHT22;646;48.696;9.114;2023-03-01T03:58:37;0.80;99.90
1307;DHT22;646;48.696;9.114;2023-03-01T04:01:03;0.70;99.90
1307;DHT22;646;48.696;9.114;2023-03-01T04:03:29;0.60;99.90
1307;DHT22;646;48.696;9.114;2023-03-01T04:05:58;0.80;99.90
1307;DHT22;646;48.696;9.114;2023-03-01T04:08:24;0.80;99.90
1307;DHT22;646;48.696;9.114;2023-03-01T04:10:52;0.90;99.90
1307;DHT22;646;48.696;9.114;2023-03-01T04:13:20;0.50;99.90
1307;DHT22;646;48.696;9.114;2023-03-01T04:15:51;0.90;99.90
1307;DHT22;646;48.696;9.114;2023-03-01T04:18:19;0.80;99.90
1307;DHT22;646;48.696;9.114;2023-03-01T04:20:45;0.90;99.90
1307;DHT22;646;48.696;9.114;2023-03-01T04:23:15;0.70;99.90
1307;DHT22;646;48.696;9.114;2023-03-01T04:25:49;0.90;99.90
1307;DHT22;646;48.696;9.114;2023-03-01T04:28:20;0.90;99.90
1307;DHT22;646;48.696;9.114;2023-03-01T04:30:45;0.80;99.90
1307;DHT22;646;48.696;9.114;2023-03-01T04:33:11;0.90;99.90
1307;DHT22;646;48.696;9.114;2023-03-01T04:35:37;0.80;99.90
1307;DHT22;646;48.696;9.114;2023-03-01T04:38:04;0.80;99.90
1307;DHT22;646;48.696;9.114;2023-03-01T04:40:30;0.60;99.90
1307;DHT22;646;48.696;9.114;2023-03-01T04:42:56;0.90;99.80
1307;DHT22;646;48.696;9.114;2023-03-01T04:45:22;0.90;99.80
1307;DHT22;646;48.696;9.114;2023-03-01T04:47:47;0.60;99.90
1307;DHT22;646;48.696;9.114;2023-03-01T04:50:16;1.00;99.90
1307;DHT22;646;48.696;9.114;2023-03-01T04:52:42;0.80;99.90
1307;DHT22;646;48.696;9.114;2023-03-01T04:55:08;0.90;99.90
1307;DHT22;646;48.696;9.114;2023-03-01T04:57:34;0.70;99.30
1307;DHT22;646;48.696;9.114;2023-03-01T05:00:00;0.80;99.30
1307;DHT22;646;48.696;9.114;2023-03-01T05:02:26;1.10;99.60
1307;DHT22;646;48.696;9.114;2023-03-01T05:04:51;1.00;99.60
1307;DHT22;646;48.696;9.114;2023-03-01T05:07:17;0.90;99.50
1307;DHT22;646;48.696;9.114;2023-03-01T05:09:46;1.10;99.60
1307;DHT22;646;48.696;9.114;2023-03-01T05:12:12;1.00;99.60
1307;DHT22;646;48.696;9.114;2023-03-01T05:14:38;1.10;99.60
1307;DHT22;646;48.696;9.114;2023-03-01T05:17:04;1.20;99.10
1307;DHT22;646;48.696;9.114;2023-03-01T05:19:30;0.90;99.40
1307;DHT22;646;48.696;9.114;2023-03-01T05:21:57;1.10;99.50
1307;DHT22;646;48.696;9.114;2023-03-01T05:24:34;0.90;99.20
1307;DHT22;646;48.696;9.114;2023-03-01T05:27:00;1.00;99.30
1307;DHT22;646;48.696;9.114;2023-03-01T05:29:27;1.20;99.40
1307;DHT22;646;48.696;9.114;2023-03-01T05:31:55;1.00;99.20
1307;DHT22;646;48.696;9.114;2023-03-01T05:34:24;1.10;99.40
1307;DHT22;646;48.696;9.114;2023-03-01T05:36:51;1.20;99.40
1307;DHT22;646;48.696;9.114;2023-03-01T05:39:22;0.90;99.10
1307;DHT22;646;48.696;9.114;2023-03-01T05:41:52;1.20;99.30
1307;DHT22;646;48.696;9.114;2023-03-01T05:44:17;1.00;98.90
1307;DHT22;646;48.696;9.114;2023-03-01T05:46:43;1.00;99.00
1307;DHT22;646;48.696;9.114;2023-03-01T05:49:10;1.10;99.00
1307;DHT22;646;48.696;9.114;2023-03-01T05:51:36;1.20;99.00
1307;DHT22;646;48.696;9.114;2023-03-01T05:54:01;1.20;98.90
1307;DHT22;646;48.696;9.114;2023-03-01T05:56:27;1.00;98.80
1307;DHT22;646;48.696;9.114;2023-03-01T05:58:52;1.20;98.90
1307;DHT22;646;48.696;9.114;2023-03-01T06:01:18;1.30;99.10
1307;DHT22;646;48.696;9.114;2023-03-01T06:03:43;1.30;98.80
1307;DHT22;646;48.696;9.114;2023-03-01T06:06:09;1.20;98.60
1307;DHT22;646;48.696;9.114;2023-03-01T06:08:34;1.20;98.80
1307;DHT22;646;48.696;9.114;2023-03-01T06:11:00;1.10;98.90
1307;DHT22;646;48.696;9.114;2023-03-01T06:13:25;1.20;98.90
1307;DHT22;646;48.696;9.114;2023-03-01T06:15:51;1.20;98.80
1307;DHT22;646;48.696;9.114;2023-03-01T06:18:17;1.20;98.70
1307;DHT22;646;48.696;9.114;2023-03-01T06:20:42;1.00;98.70
1307;DHT22;646;48.696;9.114;2023-03-01T06:23:08;1.00;98.60
1307;DHT22;646;48.696;9.114;2023-03-01T06:25:33;1.40;98.80
1307;DHT22;646;48.696;9.114;2023-03-01T06:27:59;1.00;98.70
1307;DHT22;646;48.696;9.114;2023-03-01T06:30:25;1.10;98.60
1307;DHT22;646;48.696;9.114;2023-03-01T06:32:51;1.40;98.70
1307;DHT22;646;48.696;9.114;2023-03-01T06:35:18;1.30;98.50
1307;DHT22;646;48.696;9.114;2023-03-01T06:37:45;1.20;98.40
1307;DHT22;646;48.696;9.114;2023-03-01T06:40:11;1.40;98.60
1307;DHT22;646;48.696;9.114;2023-03-01T06:42:39;1.20;98.10
1307;DHT22;646;48.696;9.114;2023-03-01T06:45:07;1.50;98.30
1307;DHT22;646;48.696;9.114;2023-03-01T06:47:33;1.30;98.00
1307;DHT22;646;48.696;9.114;2023-03-01T06:50:00;1.50;97.60
1307;DHT22;646;48.696;9.114;2023-03-01T06:52:25;1.50;97.30
1307;DHT22;646;48.696;9.114;2023-03-01T06:54:51;1.60;97.30
1307;DHT22;646;48.696;9.114;2023-03-01T06:57:17;1.40;97.20
1307;DHT22;646;48.696;9.114;2023-03-01T06:59:43;1.70;96.70
1307;DHT22;646;48.696;9.114;2023-03-01T07:02:11;1.60;96.70
1307;DHT22;646;48.696;9.114;2023-03-01T07:04:37;1.50;96.00
1307;DHT22;646;48.696;9.114;2023-03-01T07:07:02;1.50;96.30
1307;DHT22;646;48.696;9.114;2023-03-01T07:09:28;1.50;96.50
1307;DHT22;646;48.696;9.114;2023-03-01T07:11:54;1.40;96.70
1307;DHT22;646;48.696;9.114;2023-03-01T07:14:19;1.60;97.00
1307;DHT22;646;48.696;9.114;2023-03-01T07:16:45;1.40;96.90
1307;DHT22;646;48.696;9.114;2023-03-01T07:19:11;1.30;96.90
1307;DHT22;646;48.696;9.114;2023-03-01T07:21:36;1.20;97.10
1307;DHT22;646;48.696;9.114;2023-03-01T07:24:07;1.10;97.20
1307;DHT22;646;48.696;9.114;2023-03-01T07:26:33;1.40;97.50
1307;DHT22;646;48.696;9.114;2023-03-01T07:29:00;1.00;97.30
1307;DHT22;646;48.696;9.114;2023-03-01T07:31:25;1.40;97.30
1307;DHT22;646;48.696;9.114;2023-03-01T07:33:53;1.00;97.00
1307;DHT22;646;48.696;9.114;2023-03-01T07:36:19;1.40;97.50
1307;DHT22;646;48.696;9.114;2023-03-01T07:38:44;1.30;97.30
1307;DHT22;646;48.696;9.114;2023-03-01T07:41:10;1.40;97.60
1307;DHT22;646;48.696;9.114;2023-03-01T07:43:35;1.40;97.20
1307;DHT22;646;48.696;9.114;2023-03-01T07:46:02;1.30;97.00
1307;DHT22;646;48.696;9.114;2023-03-01T07:48:29;1.40;97.40
1307;DHT22;646;48.696;9.114;2023-03-01T07:50:58;1.70;97.60
1307;DHT22;646;48.696;9.114;2023-03-01T07:53:23;1.60;97.30
1307;DHT22;646;48.696;9.114;2023-03-01T07:55:49;1.70;96.70
1307;DHT22;646;48.696;9.114;2023-03-01T07:58:14;1.80;96.30
1307;DHT22;646;48.696;9.114;2023-03-01T08:00:40;1.70;96.00
1307;DHT22;646;48.696;9.114;2023-03-01T08:03:05;2.00;95.50
1307;DHT22;646;48.696;9.114;2023-03-01T08:05:32;2.30;95.30
1307;DHT22;646;48.696;9.114;2023-03-01T08:07:57;2.10;94.10
1307;DHT22;646;48.696;9.114;2023-03-01T08:10:23;2.20;93.10
1307;DHT22;646;48.696;9.114;2023-03-01T08:12:51;2.50;93.80
1307;DHT22;646;48.696;9.114;2023-03-01T08:15:17;2.30;94.00
1307;DHT22;646;48.696;9.114;2023-03-01T08:17:44;2.30;93.00
1307;DHT22;646;48.696;9.114;2023-03-01T08:20:10;2.70;92.90
1307;DHT22;646;48.696;9.114;2023-03-01T08:22:37;2.50;92.30
1307;DHT22;646;48.696;9.114;2023-03-01T08:25:03;3.00;91.20
1307;DHT22;646;48.696;9.114;2023-03-01T08:27:29;2.70;90.20
1307;DHT22;646;48.696;9.114;2023-03-01T08:29:54;3.10;90.70
1307;DHT22;646;48.696;9.114;2023-03-01T08:32:20;3.00;90.60
1307;DHT22;646;48.696;9.114;2023-03-01T08:34:48;3.10;88.80
1307;DHT22;646;48.696;9.114;2023-03-01T08:37:14;3.10;88.10
1307;DHT22;646;48.696;9.114;2023-03-01T08:39:39;3.20;88.80
1307;DHT22;646;48.696;9.114;2023-03-01T08:42:05;3.30;87.40
1307;DHT22;646;48.696;9.114;2023-03-01T08:44:30;3.40;85.90
1307;DHT22;646;48.696;9.114;2023-03-01T08:46:56;3.40;85.00
1307;DHT22;646;48.696;9.114;2023-03-01T08:49:22;3.90;84.20
1307;DHT22;646;48.696;9.114;2023-03-01T08:51:49;4.30;80.30
1307;DHT22;646;48.696;9.114;2023-03-01T08:54:16;4.70;79.70
1307;DHT22;646;48.696;9.114;2023-03-01T08:56:43;5.40;79.00
1307;DHT22;646;48.696;9.114;2023-03-01T08:59:10;6.20;73.40
1307;DHT22;646;48.696;9.114;2023-03-01T09:01:36;7.20;67.70
1307;DHT22;646;48.696;9.114;2023-03-01T09:04:02;7.90;63.10
1307;DHT22;646;48.696;9.114;2023-03-01T09:06:30;9.20;60.00
1307;DHT22;646;48.696;9.114;2023-03-01T09:08:56;9.50;54.80
1307;DHT22;646;48.696;9.114;2023-03-01T09:11:22;10.10;51.80
1307;DHT22;646;48.696;9.114;2023-03-01T09:13:48;11.00;50.70
1307;DHT22;646;48.696;9.114;2023-03-01T09:16:16;10.60;47.50
1307;DHT22;646;48.696;9.114;2023-03-01T09:18:43;11.50;47.50
1307;DHT22;646;48.696;9.114;2023-03-01T09:21:14;12.20;45.30
1307;DHT22;646;48.696;9.114;2023-03-01T09:23:45;12.00;44.60
1307;DHT22;646;48.696;9.114;2023-03-01T09:26:17;12.50;44.90
1307;DHT22;646;48.696;9.114;2023-03-01T09:28:44;12.90;43.40
1307;DHT22;646;48.696;9.114;2023-03-01T09:31:10;13.20;41.60
1307;DHT22;646;48.696;9.114;2023-03-01T09:33:39;13.30;41.30
1307;DHT22;646;48.696;9.114;2023-03-01T09:36:07;12.90;41.00
1307;DHT22;646;48.696;9.114;2023-03-01T09:38:33;13.70;41.70
1307;DHT22;646;48.696;9.114;2023-03-01T09:41:00;14.30;40.60
1307;DHT22;646;48.696;9.114;2023-03-01T09:46:04;14.20;38.80
1307;DHT22;646;48.696;9.114;2023-03-01T09:48:49;15.20;39.50
1307;DHT22;646;48.696;9.114;2023-03-01T09:51:22;15.40;36.70
1307;DHT22;646;48.696;9.114;2023-03-01T09:53:49;16.50;35.90
1307;DHT22;646;48.696;9.114;2023-03-01T09:56:29;16.60;34.10
1307;DHT22;646;48.696;9.114;2023-03-01T10:01:59;16.30;33.20
1307;DHT22;646;48.696;9.114;2023-03-01T10:07:22;16.80;33.60
1307;DHT22;646;48.696;9.114;2023-03-01T10:09:50;16.50;33.30
1307;DHT22;646;48.696;9.114;2023-03-01T10:12:19;16.50;33.00
1307;DHT22;646;48.696;9.114;2023-03-01T10:15:00;16.60;33.40
1307;DHT22;646;48.696;9.114;2023-03-01T10:17:35;16.40;32.50
1307;DHT22;646;48.696;9.114;2023-03-01T10:22:41;17.50;32.50
1307;DHT22;646;48.696;9.114;2023-03-01T10:25:13;18.50;32.50
1307;DHT22;646;48.696;9.114;2023-03-01T10:30:34;20.20;29.70
1307;DHT22;646;48.696;9.114;2023-03-01T10:33:00;19.50;28.20
1307;DHT22;646;48.696;9.114;2023-03-01T10:35:29;19.10;28.70
1307;DHT22;646;48.696;9.114;2023-03-01T10:38:05;19.40;29.80
1307;DHT22;646;48.696;9.114;2023-03-01T10:40:32;20.40;29.40
1307;DHT22;646;48.696;9.114;2023-03-01T10:42:59;21.50;28.40
1307;DHT22;646;48.696;9.114;2023-03-01T10:45:34;22.00;27.30
1307;DHT22;646;48.696;9.114;2023-03-01T10:50:49;23.10;26.60
1307;DHT22;646;48.696;9.114;2023-03-01T10:53:32;23.10;25.40
1307;DHT22;646;48.696;9.114;2023-03-01T10:56:12;23.10;25.30
1307;DHT22;646;48.696;9.114;2023-03-01T11:01:27;22.80;25.50
1307;DHT22;646;48.696;9.114;2023-03-01T11:06:31;23.20;25.60
1307;DHT22;646;48.696;9.114;2023-03-01T11:08:57;23.70;25.00
1307;DHT22;646;48.696;9.114;2023-03-01T11:11:38;23.50;24.60
1307;DHT22;646;48.696;9.114;2023-03-01T11:16:45;24.10;24.00
1307;DHT22;646;48.696;9.114;2023-03-01T11:24:16;22.70;25.00
1307;DHT22;646;48.696;9.114;2023-03-01T11:26:47;23.10;24.60
1307;DHT22;646;48.696;9.114;2023-03-01T11:29:26;23.20;24.30
1307;DHT22;646;48.696;9.114;2023-03-01T11:31:54;24.10;24.10
1307;DHT22;646;48.696;9.114;2023-03-01T11:34:33;23.30;24.00
1307;DHT22;646;48.696;9.114;2023-03-01T11:37:02;23.90;24.20
1307;DHT22;646;48.696;9.114;2023-03-01T11:39:37;23.40;24.60
1307;DHT22;646;48.696;9.114;2023-03-01T11:42:17;23.90;24.20
1307;DHT22;646;48.696;9.114;2023-03-01T11:44:47;24.00;24.20
1307;DHT22;646;48.696;9.114;2023-03-01T11:48:02;24.10;23.50
1307;DHT22;646;48.696;9.114;2023-03-01T11:50:11;23.30;23.60
1307;DHT22;646;48.696;9.114;2023-03-01T12:01:17;25.00;23.40
1307;DHT22;646;48.696;9.114;2023-03-01T12:04:03;25.90;23.10
1307;DHT22;646;48.696;9.114;2023-03-01T12:06:42;26.00;22.30
1307;DHT22;646;48.696;9.114;2023-03-01T12:15:22;25.90;21.90
1307;DHT22;646;48.696;9.114;2023-03-01T12:18:16;25.70;22.30
1307;DHT22;646;48.696;9.114;2023-03-01T12:24:35;26.60;22.50
1307;DHT22;646;48.696;9.114;2023-03-01T12:32:39;24.70;23.40
1307;DHT22;646;48.696;9.114;2023-03-01T12:38:13;25.40;22.90
1307;DHT22;646;48.696;9.114;2023-03-01T12:41:14;24.40;22.60
1307;DHT22;646;48.696;9.114;2023-03-01T12:51:37;24.80;22.80
1307;DHT22;646;48.696;9.114;2023-03-01T12:54:26;24.90;22.80
1307;DHT22;646;48.696;9.114;2023-03-01T12:56:54;25.20;22.80
1307;DHT22;646;48.696;9.114;2023-03-01T12:59:29;25.50;23.60
1307;DHT22;646;48.696;9.114;2023-03-01T13:02:15;26.10;22.30
1307;DHT22;646;48.696;9.114;2023-03-01T13:08:14;26.50;22.60
1307;DHT22;646;48.696;9.114;2023-03-01T13:10:47;27.10;21.30
1307;DHT22;646;48.696;9.114;2023-03-01T13:13:25;27.10;21.10
1307;DHT22;646;48.696;9.114;2023-03-01T13:15:52;26.90;21.30
1307;DHT22;646;48.696;9.114;2023-03-01T13:20:52;27.00;21.10
1307;DHT22;646;48.696;9.114;2023-03-01T13:26:14;24.90;22.80
1307;DHT22;646;48.696;9.114;2023-03-01T13:28:47;24.10;22.80
1307;DHT22;646;48.696;9.114;2023-03-01T13:33:55;23.40;23.60
1307;DHT22;646;48.696;9.114;2023-03-01T13:44:31;22.90;24.50
1307;DHT22;646;48.696;9.114;2023-03-01T13:50:02;23.60;23.90
1307;DHT22;646;48.696;9.114;2023-03-01T13:52:43;24.50;23.80
1307;DHT22;646;48.696;9.114;2023-03-01T13:55:23;24.10;23.40
1307;DHT22;646;48.696;9.114;2023-03-01T13:58:00;24.60;23.40
1307;DHT22;646;48.696;9.114;2023-03-01T14:03:17;24.30;24.00
1307;DHT22;646;48.696;9.114;2023-03-01T14:06:07;24.30;23.90
1307;DHT22;646;48.696;9.114;2023-03-01T14:08:35;23.70;23.50
1307;DHT22;646;48.696;9.114;2023-03-01T14:11:33;23.50;24.10
1307;DHT22;646;48.696;9.114;2023-03-01T14:14:32;23.30;24.70
1307;DHT22;646;48.696;9.114;2023-03-01T14:20:26;23.40;24.30
1307;DHT22;646;48.696;9.114;2023-03-01T14:22:54;23.40;24.30
1307;DHT22;646;48.696;9.114;2023-03-01T14:27:58;23.40;24.10
1307;DHT22;646;48.696;9.114;2023-03-01T14:32:59;23.10;24.30
1307;DHT22;646;48.696;9.114;2023-03-01T14:35:28;23.10;24.60
1307;DHT22;646;48.696;9.114;2023-03-01T14:37:53;22.50;24.30
1307;DHT22;646;48.696;9.114;2023-03-01T14:40:34;22.30;25.20
1307;DHT22;646;48.696;9.114;2023-03-01T14:43:03;21.80;25.50
1307;DHT22;646;48.696;9.114;2023-03-01T14:45:33;21.80;25.70
1307;DHT22;646;48.696;9.114;2023-03-01T14:48:01;22.10;26.10
1307;DHT22;646;48.696;9.114;2023-03-01T14:50:36;21.80;25.60
1307;DHT22;646;48.696;9.114;2023-03-01T14:53:06;21.90;25.70
1307;DHT22;646;48.696;9.114;2023-03-01T14:55:41;22.10;25.50
1307;DHT22;646;48.696;9.114;2023-03-01T14:58:12;22.00;25.30
1307;DHT22;646;48.696;9.114;2023-03-01T15:00:39;21.90;25.30
1307;DHT22;646;48.696;9.114;2023-03-01T15:03:10;21.30;25.80
1307;DHT22;646;48.696;9.114;2023-03-01T15:05:39;20.20;26.50
1307;DHT22;646;48.696;9.114;2023-03-01T15:08:05;20.20;27.20
1307;DHT22;646;48.696;9.114;2023-03-01T15:10:34;19.90;27.20
1307;DHT22;646;48.696;9.114;2023-03-01T15:13:12;19.90;27.80
1307;DHT22;646;48.696;9.114;2023-03-01T15:15:44;18.90;27.70
1307;DHT22;646;48.696;9.114;2023-03-01T15:18:25;17.80;29.10
1307;DHT22;646;48.696;9.114;2023-03-01T15:20:52;16.50;30.70
1307;DHT22;646;48.696;9.114;2023-03-01T15:23:24;15.20;31.80
1307;DHT22;646;48.696;9.114;2023-03-01T15:25:51;14.60;34.10
1307;DHT22;646;48.696;9.114;2023-03-01T15:28:32;13.60;35.50
1307;DHT22;646;48.696;9.114;2023-03-01T15:31:06;12.90;37.40
1307;DHT22;646;48.696;9.114;2023-03-01T15:33:37;12.40;38.40
1307;DHT22;646;48.696;9.114;2023-03-01T15:38:56;11.40;41.00
1307;DHT22;646;48.696;9.114;2023-03-01T15:41:31;10.90;42.10
1307;DHT22;646;48.696;9.114;2023-03-01T15:44:14;10.70;43.00
1307;DHT22;646;48.696;9.114;2023-03-01T15:46:40;10.20;43.40
1307;DHT22;646;48.696;9.114;2023-03-01T15:49:42;9.90;45.10
1307;DHT22;646;48.696;9.114;2023-03-01T15:52:24;9.90;45.60
1307;DHT22;646;48.696;9.114;2023-03-01T15:54:59;9.80;46.20
1307;DHT22;646;48.696;9.114;2023-03-01T15:57:25;9.50;46.80
1307;DHT22;646;48.696;9.114;2023-03-01T15:59:50;9.20;46.60
1307;DHT22;646;48.696;9.114;2023-03-01T16:02:16;9.30;46.90
1307;DHT22;646;48.696;9.114;2023-03-01T16:04:41;9.10;48.30
1307;DHT22;646;48.696;9.114;2023-03-01T16:07:09;9.00;48.50
1307;DHT22;646;48.696;9.114;2023-03-01T16:09:35;8.80;49.30
1307;DHT22;646;48.696;9.114;2023-03-01T16:12:01;8.40;49.40
1307;DHT22;646;48.696;9.114;2023-03-01T16:14:27;8.20;49.60
1307;DHT22;646;48.696;9.114;2023-03-01T16:16:53;8.60;50.00
1307;DHT22;646;48.696;9.114;2023-03-01T16:19:18;8.10;49.50
1307;DHT22;646;48.696;9.114;2023-03-01T16:21:44;8.30;50.40
1307;DHT22;646;48.696;9.114;2023-03-01T16:24:12;8.10;50.60
1307;DHT22;646;48.696;9.114;2023-03-01T16:26:37;8.00;51.00
1307;DHT22;646;48.696;9.114;2023-03-01T16:29:03;7.70;51.10
1307;DHT22;646;48.696;9.114;2023-03-01T16:31:29;7.60;50.90
1307;DHT22;646;48.696;9.114;2023-03-01T16:33:57;7.70;51.50
1307;DHT22;646;48.696;9.114;2023-03-01T16:36:24;7.40;51.50
1307;DHT22;646;48.696;9.114;2023-03-01T16:38:51;7.10;51.90
1307;DHT22;646;48.696;9.114;2023-03-01T16:41:19;7.10;52.30
1307;DHT22;646;48.696;9.114;2023-03-01T16:43:44;6.90;52.80
1307;DHT22;646;48.696;9.114;2023-03-01T16:46:17;6.70;52.60
1307;DHT22;646;48.696;9.114;2023-03-01T16:48:44;6.70;53.40
1307;DHT22;646;48.696;9.114;2023-03-01T16:51:10;6.70;53.60
1307;DHT22;646;48.696;9.114;2023-03-01T16:53:36;6.70;53.70
1307;DHT22;646;48.696;9.114;2023-03-01T16:56:04;6.40;54.00
1307;DHT22;646;48.696;9.114;2023-03-01T16:58:30;6.50;54.20
1307;DHT22;646;48.696;9.114;2023-03-01T17:00:55;6.30;54.30
1307;DHT22;646;48.696;9.114;2023-03-01T17:03:22;6.00;54.50
1307;DHT22;646;48.696;9.114;2023-03-01T17:05:49;6.20;55.30
1307;DHT22;646;48.696;9.114;2023-03-01T17:08:15;5.80;55.00
1307;DHT22;646;48.696;9.114;2023-03-01T17:10:41;5.90;55.50
1307;DHT22;646;48.696;9.114;2023-03-01T17:13:08;5.60;55.70
1307;DHT22;646;48.696;9.114;2023-03-01T17:15:34;5.70;56.50
1307;DHT22;646;48.696;9.114;2023-03-01T17:18:00;5.40;56.60
1307;DHT22;646;48.696;9.114;2023-03-01T17:20:26;5.40;56.10
1307;DHT22;646;48.696;9.114;2023-03-01T17:22:52;5.50;57.30
1307;DHT22;646;48.696;9.114;2023-03-01T17:25:17;5.10;57.40
1307;DHT22;646;48.696;9.114;2023-03-01T17:27:43;5.20;57.50
1307;DHT22;646;48.696;9.114;2023-03-01T17:30:10;5.20;57.80
1307;DHT22;646;48.696;9.114;2023-03-01T17:32:37;5.00;57.90
1307;DHT22;646;48.696;9.114;2023-03-01T17:35:02;5.10;58.10
1307;DHT22;646;48.696;9.114;2023-03-01T17:37:28;5.10;58.60
1307;DHT22;646;48.696;9.114;2023-03-01T17:39:53;4.80;58.00
1307;DHT22;646;48.696;9.114;2023-03-01T17:42:19;5.00;59.00
1307;DHT22;646;48.696;9.114;2023-03-01T17:44:45;4.70;59.20
1307;DHT22;646;48.696;9.114;2023-03-01T17:47:10;4.60;59.20
1307;DHT22;646;48.696;9.114;2023-03-01T17:49:36;4.70;59.50
1307;DHT22;646;48.696;9.114;2023-03-01T17:52:02;4.80;59.80
1307;DHT22;646;48.696;9.114;2023-03-01T17:54:27;4.70;60.00
1307;DHT22;646;48.696;9.114;2023-03-01T17:56:53;4.50;59.30
1307;DHT22;646;48.696;9.114;2023-03-01T17:59:20;4.40;60.40
1307;DHT22;646;48.696;9.114;2023-03-01T18:01:46;4.50;60.90
1307;DHT22;646;48.696;9.114;2023-03-01T18:04:11;4.10;60.60
1307;DHT22;646;48.696;9.114;2023-03-01T18:06:37;4.20;60.70
1307;DHT22;646;48.696;9.114;2023-03-01T18:09:04;4.10;61.50
1307;DHT22;646;48.696;9.114;2023-03-01T18:11:32;4.10;60.90
1307;DHT22;646;48.696;9.114;2023-03-01T18:13:58;4.30;62.60
1307;DHT22;646;48.696;9.114;2023-03-01T18:16:24;3.90;62.40
1307;DHT22;646;48.696;9.114;2023-03-01T18:18:54;4.20;63.00
1307;DHT22;646;48.696;9.114;2023-03-01T18:21:19;4.20;63.40
1307;DHT22;646;48.696;9.114;2023-03-01T18:23:46;3.80;64.20
1307;DHT22;646;48.696;9.114;2023-03-01T18:26:13;3.90;64.20